Time;durP1;ratioP1;P1;durP2;ratioP2;P2;SDS_P1;SDS_P2;PMS_P1;PMS_P2;Temp;Humidity;BMP_temperature;BMP_pressure;BME280_temperature;BME280_humidity;BME280_pressure;Samples;Min_cycle;Max_cycle;Signal;HPM_P1;HPM_P2
2022/05/20 00:00:20;;;;;;;1999.90;999.90;;;;;;;;;;5098373;27;20875;-72
2022/05/20 00:02:48;;;;;;;1999.90;999.90;;;;;;;;;;5098936;27;20870;-71
2022/05/20 00:05:16;;;;;;;1999.90;999.90;;;;;;;;;;5095661;27;20399;-74
2022/05/20 00:07:43;;;;;;;1999.90;999.90;;;;;;;;;;5093179;27;20489;-70
2022/05/20 00:10:15;;;;;;;1999.90;999.90;;;;;;;;;;5094645;27;20383;-71
2022/05/20 00:12:43;;;;;;;1999.90;999.90;;;;;;;;;;5097466;27;20425;-72
2022/05/20 00:15:11;;;;;;;1999.90;999.90;;;;;;;;;;5092600;27;20408;-71
2022/05/20 00:17:39;;;;;;;1999.90;999.90;;;;;;;;;;5094616;27;20931;-70
2022/05/20 00:20:08;;;;;;;1999.90;999.90;;;;;;;;;;5089354;27;20541;-71
2022/05/20 00:22:36;;;;;;;1999.90;999.90;;;;;;;;;;5095833;27;20983;-70
2022/05/20 00:27:50;;;;;;;1999.90;999.90;;;;;;;;;;5095168;27;20487;-70
2022/05/20 00:30:18;;;;;;;1999.90;999.90;;;;;;;;;;5095251;27;20465;-71
2022/05/20 00:32:45;;;;;;;1999.90;999.90;;;;;;;;;;5095025;27;20434;-71
2022/05/20 00:35:13;;;;;;;1999.90;999.90;;;;;;;;;;5097261;27;21217;-71
2022/05/20 00:37:41;;;;;;;1999.90;999.90;;;;;;;;;;5078558;27;20478;-71
2022/05/20 00:40:10;;;;;;;1999.90;999.90;;;;;;;;;;5093733;27;20890;-71
2022/05/20 00:42:37;;;;;;;1999.90;999.90;;;;;;;;;;5096379;27;20408;-70
2022/05/20 00:45:07;;;;;;;1999.90;999.90;;;;;;;;;;5078926;28;20781;-70
2022/05/20 00:47:35;;;;;;;1999.90;999.90;;;;;;;;;;5098716;27;20968;-71
2022/05/20 00:50:05;;;;;;;1999.90;999.90;;;;;;;;;;5093235;27;21305;-71
2022/05/20 00:52:35;;;;;;;1999.90;999.90;;;;;;;;;;5094442;27;20748;-71
2022/05/20 00:55:07;;;;;;;1999.90;999.90;;;;;;;;;;5097422;27;21347;-71
2022/05/20 00:57:36;;;;;;;1999.90;999.90;;;;;;;;;;5081956;27;20392;-71
2022/05/20 01:00:05;;;;;;;1999.90;999.90;;;;;;;;;;5094619;27;20404;-71
2022/05/20 01:02:34;;;;;;;1999.90;999.90;;;;;;;;;;5085943;27;20469;-71
2022/05/20 01:05:03;;;;;;;1999.90;999.90;;;;;;;;;;5094744;27;20413;-71
2022/05/20 01:07:32;;;;;;;1999.90;999.90;;;;;;;;;;5098225;27;20423;-70
2022/05/20 01:10:00;;;;;;;1999.90;999.90;;;;;;;;;;5096358;27;20407;-70
2022/05/20 01:12:28;;;;;;;1999.90;999.90;;;;;;;;;;5098733;27;20407;-70
2022/05/20 01:14:56;;;;;;;1999.90;999.90;;;;;;;;;;5097452;27;20480;-71
2022/05/20 01:17:23;;;;;;;1999.90;999.90;;;;;;;;;;5113992;27;20391;-70
2022/05/20 01:19:54;;;;;;;1999.90;999.90;;;;;;;;;;5093271;27;20395;-70
2022/05/20 01:22:26;;;;;;;1999.90;999.90;;;;;;;;;;5115252;27;20425;-70
2022/05/20 01:24:55;;;;;;;1999.90;999.90;;;;;;;;;;5094115;27;20403;-69
2022/05/20 01:27:22;;;;;;;1999.90;999.90;;;;;;;;;;5095041;27;20457;-70
2022/05/20 01:29:51;;;;;;;1999.90;999.90;;;;;;;;;;5092503;27;20384;-70
2022/05/20 01:32:18;;;;;;;1999.90;999.90;;;;;;;;;;5096253;27;20403;-70
2022/05/20 01:34:46;;;;;;;1999.90;999.90;;;;;;;;;;5095238;27;20452;-70
2022/05/20 01:37:13;;;;;;;1999.90;999.90;;;;;;;;;;5095357;27;20402;-73
2022/05/20 01:39:42;;;;;;;1999.90;999.90;;;;;;;;;;5095673;27;20391;-70
2022/05/20 01:42:13;;;;;;;1999.90;999.90;;;;;;;;;;5076847;27;20418;-70
2022/05/20 01:44:42;;;;;;;1999.90;999.90;;;;;;;;;;5095360;27;20513;-70
2022/05/20 01:47:12;;;;;;;1999.90;999.90;;;;;;;;;;5095619;27;20410;-69
2022/05/20 01:49:42;;;;;;;1999.90;999.90;;;;;;;;;;5097180;27;20411;-69
2022/05/20 01:52:15;;;;;;;1999.90;999.90;;;;;;;;;;5093666;27;21450;-70
2022/05/20 01:54:49;;;;;;;1999.90;999.90;;;;;;;;;;5101712;27;20404;-70
2022/05/20 01:57:21;;;;;;;1999.90;999.90;;;;;;;;;;5096088;27;20407;-70
2022/05/20 01:59:50;;;;;;;1999.90;999.90;;;;;;;;;;5096070;27;20387;-70
2022/05/20 02:02:24;;;;;;;1999.90;999.90;;;;;;;;;;5097215;27;20504;-71
2022/05/20 02:04:54;;;;;;;1999.90;999.90;;;;;;;;;;5098795;27;20433;-71
2022/05/20 02:07:26;;;;;;;1999.90;999.90;;;;;;;;;;5097138;27;21289;-70
2022/05/20 02:09:56;;;;;;;1999.90;999.90;;;;;;;;;;5098501;27;20387;-70
2022/05/20 02:12:26;;;;;;;1999.90;999.90;;;;;;;;;;5100155;27;20421;-71
2022/05/20 02:14:56;;;;;;;1999.90;999.90;;;;;;;;;;5093705;27;20391;-71
2022/05/20 02:17:26;;;;;;;1999.90;999.90;;;;;;;;;;5099324;27;20395;-70
2022/05/20 02:19:57;;;;;;;1999.90;999.90;;;;;;;;;;5098219;27;20407;-70
2022/05/20 02:22:26;;;;;;;1999.90;999.90;;;;;;;;;;5100956;27;20434;-70
2022/05/20 02:24:55;;;;;;;1999.90;999.90;;;;;;;;;;5099285;27;20382;-71
2022/05/20 02:27:24;;;;;;;1999.90;999.90;;;;;;;;;;5099613;27;20503;-72
2022/05/20 02:29:55;;;;;;;1999.90;999.90;;;;;;;;;;5098678;27;20431;-72
2022/05/20 02:32:25;;;;;;;1999.90;999.90;;;;;;;;;;5099306;27;20411;-72
2022/05/20 02:34:53;;;;;;;1999.90;999.90;;;;;;;;;;5097975;27;20383;-73
2022/05/20 02:37:22;;;;;;;1999.90;999.90;;;;;;;;;;5100557;27;20395;-70
2022/05/20 02:39:49;;;;;;;1999.90;999.90;;;;;;;;;;5099766;27;20403;-71
2022/05/20 02:42:17;;;;;;;1999.90;999.90;;;;;;;;;;5099596;27;21101;-71
2022/05/20 02:44:45;;;;;;;1999.90;999.90;;;;;;;;;;5097730;27;20419;-71
2022/05/20 02:47:14;;;;;;;1999.90;999.90;;;;;;;;;;5094361;27;20390;-71
2022/05/20 02:49:41;;;;;;;1999.90;999.90;;;;;;;;;;5099125;27;20443;-74
2022/05/20 02:52:09;;;;;;;1999.90;999.90;;;;;;;;;;5098257;27;20414;-72
2022/05/20 02:54:37;;;;;;;1999.90;999.90;;;;;;;;;;5099300;27;20448;-72
2022/05/20 02:57:05;;;;;;;1999.90;999.90;;;;;;;;;;5094953;27;20390;-72
2022/05/20 03:05:05;;;;;;;1999.90;999.90;;;;;;;;;;5092606;27;20403;-71
2022/05/20 03:07:34;;;;;;;1999.90;999.90;;;;;;;;;;5099129;27;20403;-71
2022/05/20 03:10:02;;;;;;;1999.90;999.90;;;;;;;;;;5098761;27;20402;-71
2022/05/20 03:12:30;;;;;;;1999.90;999.90;;;;;;;;;;5099774;27;20419;-71
2022/05/20 03:14:57;;;;;;;1999.90;999.90;;;;;;;;;;5098170;27;20697;-71
2022/05/20 03:17:26;;;;;;;1999.90;999.90;;;;;;;;;;5080964;27;20435;-71
2022/05/20 03:19:54;;;;;;;1999.90;999.90;;;;;;;;;;5097853;27;20469;-70
2022/05/20 03:22:22;;;;;;;1999.90;999.90;;;;;;;;;;5098724;27;20501;-70
2022/05/20 03:24:49;;;;;;;1999.90;999.90;;;;;;;;;;5095156;27;20406;-70
2022/05/20 03:27:17;;;;;;;1999.90;999.90;;;;;;;;;;5096793;27;20399;-70
2022/05/20 03:29:45;;;;;;;1999.90;999.90;;;;;;;;;;5095769;27;20398;-70
2022/05/20 03:32:13;;;;;;;1999.90;999.90;;;;;;;;;;5097441;27;20857;-72
2022/05/20 03:34:43;;;;;;;1999.90;999.90;;;;;;;;;;5098329;27;20494;-70
2022/05/20 03:37:10;;;;;;;1999.90;999.90;;;;;;;;;;5098446;27;20435;-70
2022/05/20 03:39:38;;;;;;;1999.90;999.90;;;;;;;;;;5095801;27;21361;-70
2022/05/20 03:42:05;;;;;;;1999.90;999.90;;;;;;;;;;5097957;27;20459;-70
2022/05/20 03:44:33;;;;;;;1999.90;999.90;;;;;;;;;;5097200;27;21093;-70
2022/05/20 03:47:01;;;;;;;1999.90;999.90;;;;;;;;;;5096429;27;20464;-70
2022/05/20 03:49:29;;;;;;;1999.90;999.90;;;;;;;;;;5097534;27;20419;-70
2022/05/20 03:51:58;;;;;;;1999.90;999.90;;;;;;;;;;5080762;27;20399;-69
2022/05/20 03:54:29;;;;;;;1999.90;999.90;;;;;;;;;;5095436;27;20883;-70
2022/05/20 03:56:56;;;;;;;1999.90;999.90;;;;;;;;;;5092488;27;20518;-69
2022/05/20 03:59:24;;;;;;;1999.90;999.90;;;;;;;;;;5093083;27;20453;-70
2022/05/20 04:01:57;;;;;;;1999.90;999.90;;;;;;;;;;5092534;27;20419;-69
2022/05/20 04:04:26;;;;;;;1999.90;999.90;;;;;;;;;;5093742;27;20442;-69
2022/05/20 04:06:54;;;;;;;1999.90;999.90;;;;;;;;;;5072981;27;20901;-69
2022/05/20 04:09:23;;;;;;;1999.90;999.90;;;;;;;;;;5093328;27;20568;-69
2022/05/20 04:11:53;;;;;;;1999.90;999.90;;;;;;;;;;5095980;27;20403;-69
2022/05/20 04:14:20;;;;;;;1999.90;999.90;;;;;;;;;;5095922;27;20982;-69
2022/05/20 04:16:48;;;;;;;1999.90;999.90;;;;;;;;;;5096961;27;20410;-69
2022/05/20 04:19:15;;;;;;;1999.90;999.90;;;;;;;;;;5092971;27;20996;-68
2022/05/20 04:21:43;;;;;;;1999.90;999.90;;;;;;;;;;5089811;27;20395;-69
2022/05/20 04:24:11;;;;;;;1999.90;999.90;;;;;;;;;;5097755;27;20460;-69
2022/05/20 04:26:39;;;;;;;1999.90;999.90;;;;;;;;;;5088590;27;20546;-69
2022/05/20 04:29:07;;;;;;;1999.90;999.90;;;;;;;;;;5084245;27;20387;-69
2022/05/20 04:31:35;;;;;;;1999.90;999.90;;;;;;;;;;5083691;27;20411;-69
2022/05/20 04:34:03;;;;;;;1999.90;999.90;;;;;;;;;;5095925;27;20908;-69
2022/05/20 04:36:30;;;;;;;1999.90;999.90;;;;;;;;;;5098433;27;20399;-69
2022/05/20 04:38:58;;;;;;;1999.90;999.90;;;;;;;;;;5093224;27;20407;-70
2022/05/20 04:46:59;;;;;;;1999.90;999.90;;;;;;;;;;5095664;27;20541;-73
2022/05/20 04:49:27;;;;;;;1999.90;999.90;;;;;;;;;;5094834;27;20390;-71
2022/05/20 04:51:55;;;;;;;1999.90;999.90;;;;;;;;;;5094627;27;20410;-71
2022/05/20 04:57:09;;;;;;;1999.90;999.90;;;;;;;;;;5094187;27;20422;-71
2022/05/20 04:59:38;;;;;;;1999.90;999.90;;;;;;;;;;5095600;27;21132;-72
2022/05/20 05:02:07;;;;;;;1999.90;999.90;;;;;;;;;;5092500;27;20902;-71
2022/05/20 05:04:35;;;;;;;1999.90;999.90;;;;;;;;;;5093493;27;20391;-71
2022/05/20 05:07:03;;;;;;;1999.90;999.90;;;;;;;;;;5095321;27;20438;-70
2022/05/20 05:09:30;;;;;;;1999.90;999.90;;;;;;;;;;5095211;27;20406;-72
2022/05/20 05:11:58;;;;;;;1999.90;999.90;;;;;;;;;;5095053;27;20514;-73
2022/05/20 05:14:35;;;;;;;1999.90;999.90;;;;;;;;;;5081030;27;20490;-71
2022/05/20 05:17:06;;;;;;;1999.90;999.90;;;;;;;;;;5093915;27;20799;-72
2022/05/20 05:19:34;;;;;;;1999.90;999.90;;;;;;;;;;5110243;27;20477;-72
2022/05/20 05:22:02;;;;;;;1999.90;999.90;;;;;;;;;;5091507;27;20945;-72
2022/05/20 05:24:29;;;;;;;1999.90;999.90;;;;;;;;;;5094846;27;20474;-71
2022/05/20 05:26:57;;;;;;;1999.90;999.90;;;;;;;;;;5099466;27;20403;-72
2022/05/20 05:29:24;;;;;;;1999.90;999.90;;;;;;;;;;5100379;27;20961;-72
2022/05/20 05:31:52;;;;;;;1999.90;999.90;;;;;;;;;;5101063;27;20522;-71
2022/05/20 05:34:21;;;;;;;1999.90;999.90;;;;;;;;;;5099708;27;21338;-71
2022/05/20 05:36:48;;;;;;;1999.90;999.90;;;;;;;;;;5098058;27;21042;-71
2022/05/20 05:39:16;;;;;;;1999.90;999.90;;;;;;;;;;5096863;27;20396;-72
2022/05/20 05:41:45;;;;;;;1999.90;999.90;;;;;;;;;;5101207;27;20886;-72
2022/05/20 05:44:13;;;;;;;1999.90;999.90;;;;;;;;;;5100243;27;20481;-72
2022/05/20 05:46:40;;;;;;;1999.90;999.90;;;;;;;;;;5098811;27;20482;-71
2022/05/20 05:49:08;;;;;;;1999.90;999.90;;;;;;;;;;5091009;27;20951;-72
2022/05/20 05:51:37;;;;;;;1999.90;999.90;;;;;;;;;;5100145;27;20429;-71
2022/05/20 05:54:04;;;;;;;1999.90;999.90;;;;;;;;;;5096738;27;21101;-72
2022/05/20 05:56:32;;;;;;;1999.90;999.90;;;;;;;;;;5097169;27;20436;-72
2022/05/20 05:58:59;;;;;;;1999.90;999.90;;;;;;;;;;5101668;27;20453;-72
2022/05/20 06:01:27;;;;;;;1999.90;999.90;;;;;;;;;;5099602;27;21405;-72
2022/05/20 06:04:00;;;;;;;1999.90;999.90;;;;;;;;;;5098626;27;20414;-73
2022/05/20 06:06:27;;;;;;;1999.90;999.90;;;;;;;;;;5087949;27;20472;-72
2022/05/20 06:08:56;;;;;;;1999.90;999.90;;;;;;;;;;5100382;27;20407;-72
2022/05/20 06:11:24;;;;;;;1999.90;999.90;;;;;;;;;;5099941;27;20435;-73
2022/05/20 06:13:51;;;;;;;1999.90;999.90;;;;;;;;;;5102254;27;20411;-72
2022/05/20 06:16:19;;;;;;;1999.90;999.90;;;;;;;;;;5101011;27;20496;-73
2022/05/20 06:18:47;;;;;;;1999.90;999.90;;;;;;;;;;5100637;27;20398;-72
2022/05/20 06:21:15;;;;;;;1999.90;999.90;;;;;;;;;;5102284;27;20796;-73
2022/05/20 06:23:42;;;;;;;1999.90;999.90;;;;;;;;;;5100255;27;20395;-72
2022/05/20 06:26:11;;;;;;;1999.90;999.90;;;;;;;;;;5093829;27;20395;-72
2022/05/20 06:28:44;;;;;;;1999.90;999.90;;;;;;;;;;5100736;27;20410;-73
2022/05/20 06:31:12;;;;;;;1999.90;999.90;;;;;;;;;;5101556;27;20435;-74
2022/05/20 06:33:40;;;;;;;1999.90;999.90;;;;;;;;;;5082548;28;20975;-72
2022/05/20 06:41:40;;;;;;;1999.90;999.90;;;;;;;;;;5101097;27;20824;-72
2022/05/20 06:44:07;;;;;;;1999.90;999.90;;;;;;;;;;5101950;27;20391;-72
2022/05/20 06:46:35;;;;;;;1999.90;999.90;;;;;;;;;;5100948;27;20408;-72
2022/05/20 06:49:03;;;;;;;1999.90;999.90;;;;;;;;;;5102471;27;20659;-72
2022/05/20 06:51:33;;;;;;;1999.90;999.90;;;;;;;;;;5100719;27;20411;-72
2022/05/20 06:54:01;;;;;;;1999.90;999.90;;;;;;;;;;5100943;27;20518;-72
2022/05/20 06:56:30;;;;;;;1999.90;999.90;;;;;;;;;;5099458;27;20500;-72
2022/05/20 06:59:00;;;;;;;1999.90;999.90;;;;;;;;;;5101270;27;20498;-72
2022/05/20 07:01:28;;;;;;;1999.90;999.90;;;;;;;;;;5099004;27;20391;-72
2022/05/20 07:03:56;;;;;;;1999.90;999.90;;;;;;;;;;5097168;27;20395;-71
2022/05/20 07:06:25;;;;;;;1999.90;999.90;;;;;;;;;;5097875;27;20394;-75
2022/05/20 07:08:52;;;;;;;1999.90;999.90;;;;;;;;;;5100010;27;21181;-73
2022/05/20 07:11:21;;;;;;;1999.90;999.90;;;;;;;;;;5099898;27;20411;-72
2022/05/20 07:13:50;;;;;;;1999.90;999.90;;;;;;;;;;5099997;27;21120;-73
2022/05/20 07:16:19;;;;;;;1999.90;999.90;;;;;;;;;;5097764;27;20414;-72
2022/05/20 07:18:47;;;;;;;1999.90;999.90;;;;;;;;;;5099073;27;20396;-72
2022/05/20 07:21:15;;;;;;;1999.90;999.90;;;;;;;;;;5099867;27;20490;-72
2022/05/20 07:23:43;;;;;;;1999.90;999.90;;;;;;;;;;5100114;27;20403;-72
2022/05/20 07:26:10;;;;;;;1999.90;999.90;;;;;;;;;;5078041;27;20395;-73
2022/05/20 07:28:38;;;;;;;1999.90;999.90;;;;;;;;;;5100765;27;20410;-71
2022/05/20 07:31:06;;;;;;;1999.90;999.90;;;;;;;;;;5101589;27;20414;-71
2022/05/20 07:33:37;;;;;;;1999.90;999.90;;;;;;;;;;5099271;27;20394;-72
2022/05/20 07:36:04;;;;;;;1999.90;999.90;;;;;;;;;;5095250;27;20388;-72
2022/05/20 07:38:32;;;;;;;1999.90;999.90;;;;;;;;;;5093832;27;20475;-72
2022/05/20 07:41:00;;;;;;;1999.90;999.90;;;;;;;;;;5100128;27;20399;-72
2022/05/20 07:43:28;;;;;;;1999.90;999.90;;;;;;;;;;5098858;27;20434;-72
2022/05/20 07:45:55;;;;;;;1999.90;999.90;;;;;;;;;;5098545;27;20392;-72
2022/05/20 07:48:23;;;;;;;1999.90;999.90;;;;;;;;;;5099283;27;20401;-73
2022/05/20 07:50:54;;;;;;;1999.90;999.90;;;;;;;;;;5099702;27;20419;-72
2022/05/20 07:53:23;;;;;;;1999.90;999.90;;;;;;;;;;5098898;27;20733;-72
2022/05/20 07:55:52;;;;;;;1999.90;999.90;;;;;;;;;;5098404;27;20396;-72
2022/05/20 07:58:22;;;;;;;1999.90;999.90;;;;;;;;;;5115077;27;20425;-75
2022/05/20 08:01:10;;;;;;;1999.90;999.90;;;;;;;;;;5080336;27;20848;-73
2022/05/20 08:06:24;;;;;;;1999.90;999.90;;;;;;;;;;5098743;27;20478;-73
2022/05/20 08:08:53;;;;;;;1999.90;999.90;;;;;;;;;;5098156;27;20483;-73
2022/05/20 08:11:20;;;;;;;1999.90;999.90;;;;;;;;;;5071821;27;20426;-72
2022/05/20 08:13:50;;;;;;;1999.90;999.90;;;;;;;;;;5097366;27;20415;-72
2022/05/20 08:16:18;;;;;;;1999.90;999.90;;;;;;;;;;5098413;27;20491;-72
2022/05/20 08:18:46;;;;;;;1999.90;999.90;;;;;;;;;;5097898;27;20399;-72
2022/05/20 08:21:13;;;;;;;1999.90;999.90;;;;;;;;;;5115265;27;20470;-72
2022/05/20 08:23:44;;;;;;;1999.90;999.90;;;;;;;;;;5097788;27;20490;-72
2022/05/20 08:26:11;;;;;;;1999.90;999.90;;;;;;;;;;5078864;27;20399;-71
2022/05/20 08:28:39;;;;;;;1999.90;999.90;;;;;;;;;;5098751;27;20445;-73
2022/05/20 08:31:07;;;;;;;1999.90;999.90;;;;;;;;;;5074127;27;20418;-72
2022/05/20 08:33:34;;;;;;;1999.90;999.90;;;;;;;;;;5097291;27;20420;-72
2022/05/20 08:36:03;;;;;;;1999.90;999.90;;;;;;;;;;5098844;27;20987;-72
2022/05/20 08:38:31;;;;;;;1999.90;999.90;;;;;;;;;;5089327;27;21161;-72
2022/05/20 08:41:00;;;;;;;1999.90;999.90;;;;;;;;;;5080561;27;21032;-72
2022/05/20 08:43:30;;;;;;;1999.90;999.90;;;;;;;;;;5097427;27;20457;-72
2022/05/20 08:45:58;;;;;;;1999.90;999.90;;;;;;;;;;5095576;27;20886;-72
2022/05/20 08:48:26;;;;;;;1999.90;999.90;;;;;;;;;;5097142;27;20382;-72
2022/05/20 08:50:54;;;;;;;1999.90;999.90;;;;;;;;;;5089536;27;20406;-72
2022/05/20 08:53:23;;;;;;;1999.90;999.90;;;;;;;;;;5097754;27;20441;-72
2022/05/20 08:55:50;;;;;;;1999.90;999.90;;;;;;;;;;5098006;27;20892;-72
2022/05/20 08:58:20;;;;;;;1999.90;999.90;;;;;;;;;;5097722;27;20392;-72
2022/05/20 09:00:48;;;;;;;1999.90;999.90;;;;;;;;;;5101233;27;20411;-72
2022/05/20 09:03:16;;;;;;;1999.90;999.90;;;;;;;;;;5117693;27;20581;-72
2022/05/20 09:05:45;;;;;;;1999.90;999.90;;;;;;;;;;5100438;27;20470;-73
2022/05/20 09:08:24;;;;;;;1999.90;999.90;;;;;;;;;;5101776;27;20731;-74
2022/05/20 09:10:53;;;;;;;1999.90;999.90;;;;;;;;;;5098806;27;20438;-73
2022/05/20 09:15:43;;;;;;;1999.90;999.90;;;;;;;;;;5086150;27;20888;-73
2022/05/20 09:16:12;;;;;;;1999.90;999.90;;;;;;;;;;5098952;27;20387;-72
2022/05/20 09:18:41;;;;;;;1999.90;999.90;;;;;;;;;;5101201;27;20387;-73
2022/05/20 09:21:15;;;;;;;1999.90;999.90;;;;;;;;;;5101184;27;20445;-72
2022/05/20 09:23:49;;;;;;;1999.90;999.90;;;;;;;;;;5101314;27;20445;-73
2022/05/20 09:26:21;;;;;;;1999.90;999.90;;;;;;;;;;5101235;27;21128;-71
2022/05/20 09:28:53;;;;;;;1999.90;999.90;;;;;;;;;;5097875;27;20770;-73
2022/05/20 09:31:23;;;;;;;1999.90;999.90;;;;;;;;;;5102044;27;20415;-72
2022/05/20 09:33:53;;;;;;;1999.90;999.90;;;;;;;;;;5100920;27;20434;-72
2022/05/20 09:36:30;;;;;;;1999.90;999.90;;;;;;;;;;5100651;27;20482;-72
2022/05/20 09:39:07;;;;;;;1999.90;999.90;;;;;;;;;;5100123;27;20401;-72
2022/05/20 09:41:43;;;;;;;1999.90;999.90;;;;;;;;;;5099643;27;20423;-71
2022/05/20 09:44:15;;;;;;;1999.90;999.90;;;;;;;;;;5101765;27;20419;-71
2022/05/20 09:46:48;;;;;;;1999.90;999.90;;;;;;;;;;5100009;27;20402;-71
2022/05/20 09:49:17;;;;;;;1999.90;999.90;;;;;;;;;;5100794;27;20431;-71
2022/05/20 09:51:47;;;;;;;1999.90;999.90;;;;;;;;;;5102274;27;20427;-72
2022/05/20 09:54:17;;;;;;;1999.90;999.90;;;;;;;;;;5100956;27;20462;-72
2022/05/20 09:56:45;;;;;;;1999.90;999.90;;;;;;;;;;5098819;27;20453;-71
2022/05/20 09:59:20;;;;;;;1999.90;999.90;;;;;;;;;;5100474;27;21829;-72
2022/05/20 10:01:52;;;;;;;1999.90;999.90;;;;;;;;;;5092594;27;20403;-71
2022/05/20 10:04:24;;;;;;;1999.90;999.90;;;;;;;;;;5099862;27;20379;-71
2022/05/20 10:06:54;;;;;;;1999.90;999.90;;;;;;;;;;5100202;27;20505;-70
2022/05/20 10:09:27;;;;;;;1999.90;999.90;;;;;;;;;;5092212;27;20491;-73
2022/05/20 10:11:56;;;;;;;1999.90;999.90;;;;;;;;;;5082406;27;20865;-71
2022/05/20 10:14:28;;;;;;;1999.90;999.90;;;;;;;;;;5069644;27;20871;-71
2022/05/20 10:16:58;;;;;;;1999.90;999.90;;;;;;;;;;5099041;27;20435;-73
2022/05/20 10:19:29;;;;;;;1999.90;999.90;;;;;;;;;;5098395;27;20411;-71
2022/05/20 10:21:59;;;;;;;1999.90;999.90;;;;;;;;;;5100557;27;21252;-72
2022/05/20 10:24:33;;;;;;;1999.90;999.90;;;;;;;;;;5098916;27;20386;-72
2022/05/20 10:27:03;;;;;;;1999.90;999.90;;;;;;;;;;5088317;27;20415;-72
2022/05/20 10:32:37;;;;;;;1999.90;999.90;;;;;;;;;;5101916;27;20842;-73
2022/05/20 10:35:06;;;;;;;1999.90;999.90;;;;;;;;;;5095469;27;20388;-72
2022/05/20 10:37:55;;;;;;;1999.90;999.90;;;;;;;;;;5079652;28;21981;-72
2022/05/20 10:40:33;;;;;;;1999.90;999.90;;;;;;;;;;5099169;27;20476;-73
2022/05/20 10:43:11;;;;;;;1999.90;999.90;;;;;;;;;;5097189;27;20959;-72
2022/05/20 10:48:48;;;;;;;1999.90;999.90;;;;;;;;;;5099080;27;20383;-72
2022/05/20 10:51:42;;;;;;;1999.90;999.90;;;;;;;;;;5094248;27;21003;-72
2022/05/20 10:54:17;;;;;;;1999.90;999.90;;;;;;;;;;5099696;27;20415;-72
2022/05/20 10:56:54;;;;;;;1999.90;999.90;;;;;;;;;;5097741;27;21728;-73
2022/05/20 10:59:26;;;;;;;1999.90;999.90;;;;;;;;;;5083736;27;20498;-73
2022/05/20 11:02:00;;;;;;;1999.90;999.90;;;;;;;;;;5098071;27;20388;-72
2022/05/20 11:04:43;;;;;;;1999.90;999.90;;;;;;;;;;5098780;27;20398;-73
2022/05/20 11:07:26;;;;;;;1999.90;999.90;;;;;;;;;;5098422;27;20451;-72
2022/05/20 11:09:57;;;;;;;1999.90;999.90;;;;;;;;;;5094350;27;20866;-72
2022/05/20 11:12:29;;;;;;;1999.90;999.90;;;;;;;;;;5083688;27;20406;-74
2022/05/20 11:15:03;;;;;;;1999.90;999.90;;;;;;;;;;5098437;27;20484;-72
2022/05/20 11:17:48;;;;;;;1999.90;999.90;;;;;;;;;;5100090;27;20387;-73
2022/05/20 11:20:19;;;;;;;1999.90;999.90;;;;;;;;;;5089120;27;20407;-73
2022/05/20 11:22:58;;;;;;;1999.90;999.90;;;;;;;;;;5098990;27;20418;-72
2022/05/20 11:25:37;;;;;;;1999.90;999.90;;;;;;;;;;5100086;27;20858;-73
2022/05/20 11:28:11;;;;;;;1999.90;999.90;;;;;;;;;;5082905;27;20387;-73
2022/05/20 11:30:45;;;;;;;1999.90;999.90;;;;;;;;;;5100652;27;20504;-74
2022/05/20 11:33:26;;;;;;;1999.90;999.90;;;;;;;;;;5099634;27;20386;-73
2022/05/20 11:36:08;;;;;;;1999.90;999.90;;;;;;;;;;5094142;27;21008;-72
2022/05/20 11:38:43;;;;;;;1999.90;999.90;;;;;;;;;;5098696;27;20383;-72
2022/05/20 11:41:19;;;;;;;1999.90;999.90;;;;;;;;;;5098409;27;20483;-72
2022/05/20 11:43:55;;;;;;;1999.90;999.90;;;;;;;;;;5099099;27;20444;-71
2022/05/20 11:46:28;;;;;;;1999.90;999.90;;;;;;;;;;5096581;27;20498;-72
2022/05/20 11:49:09;;;;;;;1999.90;999.90;;;;;;;;;;5098801;27;20825;-73
2022/05/20 11:51:44;;;;;;;1999.90;999.90;;;;;;;;;;5099221;27;20596;-72
2022/05/20 11:54:16;;;;;;;1999.90;999.90;;;;;;;;;;5074836;27;20379;-73
2022/05/20 11:56:48;;;;;;;1999.90;999.90;;;;;;;;;;5095506;27;20429;-73
2022/05/20 11:59:19;;;;;;;1999.90;999.90;;;;;;;;;;5100198;27;20434;-74
2022/05/20 12:01:49;;;;;;;1999.90;999.90;;;;;;;;;;5100034;27;20410;-74
2022/05/20 12:04:20;;;;;;;1999.90;999.90;;;;;;;;;;5099397;27;20408;-73
2022/05/20 12:06:50;;;;;;;1999.90;999.90;;;;;;;;;;5098391;27;20411;-72
2022/05/20 12:09:32;;;;;;;1999.90;999.90;;;;;;;;;;5098197;27;20406;-72
2022/05/20 12:12:17;;;;;;;1999.90;999.90;;;;;;;;;;5069556;27;20403;-71
2022/05/20 12:15:04;;;;;;;1999.90;999.90;;;;;;;;;;5098340;27;20857;-72
2022/05/20 12:17:33;;;;;;;1999.90;999.90;;;;;;;;;;5095269;27;21043;-72
2022/05/20 12:25:46;;;;;;;1999.90;999.90;;;;;;;;;;5087491;27;20433;-73
2022/05/20 12:28:29;;;;;;;1999.90;999.90;;;;;;;;;;5097600;27;20417;-73
2022/05/20 12:31:05;;;;;;;1999.90;999.90;;;;;;;;;;5098339;27;20396;-73
2022/05/20 12:33:47;;;;;;;1999.90;999.90;;;;;;;;;;5115058;27;20402;-73
2022/05/20 12:36:24;;;;;;;1999.90;999.90;;;;;;;;;;5097072;27;20391;-72
2022/05/20 12:39:12;;;;;;;1999.90;999.90;;;;;;;;;;5098556;27;20498;-73
2022/05/20 12:41:43;;;;;;;1999.90;999.90;;;;;;;;;;5098420;27;20379;-73
2022/05/20 12:44:36;;;;;;;1999.90;999.90;;;;;;;;;;5068276;27;20695;-73
2022/05/20 12:47:16;;;;;;;1999.90;999.90;;;;;;;;;;5096269;27;31030;-72
2022/05/20 12:49:52;;;;;;;1999.90;999.90;;;;;;;;;;5070381;28;21390;-71
2022/05/20 12:52:25;;;;;;;1999.90;999.90;;;;;;;;;;5093734;27;20897;-73
2022/05/20 12:54:54;;;;;;;1999.90;999.90;;;;;;;;;;5096324;27;20438;-73
2022/05/20 12:57:22;;;;;;;1999.90;999.90;;;;;;;;;;5096041;27;21054;-75
2022/05/20 12:59:51;;;;;;;1999.90;999.90;;;;;;;;;;5093746;27;20407;-72
2022/05/20 13:02:28;;;;;;;1999.90;999.90;;;;;;;;;;5095949;27;20379;-72
2022/05/20 13:04:58;;;;;;;1999.90;999.90;;;;;;;;;;5079594;27;20487;-71
2022/05/20 13:07:27;;;;;;;1999.90;999.90;;;;;;;;;;5098775;27;21249;-73
2022/05/20 13:09:55;;;;;;;1999.90;999.90;;;;;;;;;;5096372;27;20430;-71
2022/05/20 13:12:24;;;;;;;1999.90;999.90;;;;;;;;;;5097202;27;21500;-72
2022/05/20 13:14:56;;;;;;;1999.90;999.90;;;;;;;;;;5095103;27;20979;-73
2022/05/20 13:17:24;;;;;;;1999.90;999.90;;;;;;;;;;5092421;27;20810;-73
2022/05/20 13:19:53;;;;;;;1999.90;999.90;;;;;;;;;;5094951;27;21283;-72
2022/05/20 13:22:25;;;;;;;1999.90;999.90;;;;;;;;;;5095793;27;21249;-72
2022/05/20 13:24:55;;;;;;;1999.90;999.90;;;;;;;;;;5074469;27;20411;-72
2022/05/20 13:27:23;;;;;;;1999.90;999.90;;;;;;;;;;5086917;27;20490;-72
2022/05/20 13:29:52;;;;;;;1999.90;999.90;;;;;;;;;;5093008;27;20500;-72
2022/05/20 13:32:22;;;;;;;1999.90;999.90;;;;;;;;;;5094762;27;20391;-71
2022/05/20 13:34:52;;;;;;;1999.90;999.90;;;;;;;;;;5094745;27;20403;-72
2022/05/20 13:37:23;;;;;;;1999.90;999.90;;;;;;;;;;5074965;27;20500;-72
2022/05/20 13:39:54;;;;;;;1999.90;999.90;;;;;;;;;;5097035;27;20508;-73
2022/05/20 13:42:24;;;;;;;1999.90;999.90;;;;;;;;;;5093919;27;20399;-74
2022/05/20 13:44:53;;;;;;;1999.90;999.90;;;;;;;;;;5077977;27;20947;-72
2022/05/20 13:50:10;;;;;;;1999.90;999.90;;;;;;;;;;5099142;27;20402;-71
2022/05/20 13:52:39;;;;;;;1999.90;999.90;;;;;;;;;;5090033;27;20473;-72
2022/05/20 13:55:10;;;;;;;1999.90;999.90;;;;;;;;;;5099931;27;20472;-73
2022/05/20 13:57:41;;;;;;;1999.90;999.90;;;;;;;;;;5096590;27;20532;-72
2022/05/20 14:00:14;;;;;;;1999.90;999.90;;;;;;;;;;5098043;27;20410;-72
2022/05/20 14:02:49;;;;;;;1999.90;999.90;;;;;;;;;;5092211;27;20383;-73
2022/05/20 14:05:18;;;;;;;1999.90;999.90;;;;;;;;;;5097938;27;20408;-73
2022/05/20 14:07:48;;;;;;;1999.90;999.90;;;;;;;;;;5093096;27;20467;-73
2022/05/20 14:10:22;;;;;;;1999.90;999.90;;;;;;;;;;5096833;27;20408;-72
2022/05/20 14:12:52;;;;;;;1999.90;999.90;;;;;;;;;;5095893;27;20449;-72
2022/05/20 14:15:22;;;;;;;1999.90;999.90;;;;;;;;;;5092668;27;20512;-72
2022/05/20 14:17:49;;;;;;;1999.90;999.90;;;;;;;;;;5095813;27;21043;-73
2022/05/20 14:20:17;;;;;;;1999.90;999.90;;;;;;;;;;5093899;27;20515;-72
2022/05/20 14:22:45;;;;;;;1999.90;999.90;;;;;;;;;;5090005;27;20392;-72
2022/05/20 14:25:15;;;;;;;1999.90;999.90;;;;;;;;;;5086571;27;21384;-73
2022/05/20 14:27:45;;;;;;;1999.90;999.90;;;;;;;;;;5091472;27;20388;-73
2022/05/20 14:30:30;;;;;;;1999.90;999.90;;;;;;;;;;5072641;27;21263;-73
2022/05/20 14:32:59;;;;;;;1999.90;999.90;;;;;;;;;;5081144;27;20411;-71
2022/05/20 14:35:31;;;;;;;1999.90;999.90;;;;;;;;;;5097889;27;20454;-73
2022/05/20 14:38:00;;;;;;;1999.90;999.90;;;;;;;;;;5097688;27;20954;-71